sensor_id;sensor_type;location;lat;lon;timestamp;pressure;altitude;pressure_sealevel;temperature;humidity
56182;BME280;51963;46.052;14.544;2022-10-31T00:00:56;98863.56;;;11.33;100.00
56182;BME280;51963;46.052;14.544;2022-10-31T00:03:22;98859.72;;;11.20;100.00
56182;BME280;51963;46.052;14.544;2022-10-31T00:05:50;98864.22;;;11.11;100.00
56182;BME280;51963;46.052;14.544;2022-10-31T00:08:16;98865.34;;;11.17;100.00
56182;BME280;51963;46.052;14.544;2022-10-31T00:10:43;98868.16;;;11.15;100.00
56182;BME280;51963;46.052;14.544;2022-10-31T00:13:10;98862.31;;;11.05;100.00
56182;BME280;51963;46.052;14.544;2022-10-31T00:15:38;98863.88;;;11.14;100.00
56182;BME280;51963;46.052;14.544;2022-10-31T00:18:05;98845.50;;;10.98;100.00
56182;BME280;51963;46.052;14.544;2022-10-31T00:20:31;98855.06;;;10.99;100.00
56182;BME280;51963;46.052;14.544;2022-10-31T00:22:58;98853.56;;;11.05;100.00
56182;BME280;51963;46.052;14.544;2022-10-31T00:25:24;98856.88;;;11.22;100.00
56182;BME280;51963;46.052;14.544;2022-10-31T00:27:50;98858.34;;;11.39;100.00
56182;BME280;51963;46.052;14.544;2022-10-31T00:30:16;98857.50;;;11.24;100.00
56182;BME280;51963;46.052;14.544;2022-10-31T00:32:42;98852.25;;;11.39;100.00
56182;BME280;51963;46.052;14.544;2022-10-31T00:35:08;98852.06;;;11.25;100.00
56182;BME280;51963;46.052;14.544;2022-10-31T00:37:34;98849.63;;;11.00;100.00
56182;BME280;51963;46.052;14.544;2022-10-31T00:39:59;98858.56;;;10.99;100.00
56182;BME280;51963;46.052;14.544;2022-10-31T00:42:25;98858.88;;;11.20;100.00
56182;BME280;51963;46.052;14.544;2022-10-31T00:44:51;98859.84;;;11.42;100.00
56182;BME280;51963;46.052;14.544;2022-10-31T00:47:16;98852.06;;;11.55;100.00
56182;BME280;51963;46.052;14.544;2022-10-31T00:49:44;98861.75;;;11.63;100.00
56182;BME280;51963;46.052;14.544;2022-10-31T00:52:10;98861.31;;;11.59;100.00
56182;BME280;51963;46.052;14.544;2022-10-31T00:54:36;98859.38;;;11.53;100.00
56182;BME280;51963;46.052;14.544;2022-10-31T00:57:02;98855.53;;;11.56;100.00
56182;BME280;51963;46.052;14.544;2022-10-31T00:59:28;98851.91;;;11.72;100.00
56182;BME280;51963;46.052;14.544;2022-10-31T01:01:54;98858.75;;;11.81;100.00
56182;BME280;51963;46.052;14.544;2022-10-31T01:04:20;98854.34;;;11.73;100.00
56182;BME280;51963;46.052;14.544;2022-10-31T01:06:46;98845.69;;;11.65;100.00
56182;BME280;51963;46.052;14.544;2022-10-31T01:09:12;98847.34;;;11.66;100.00
56182;BME280;51963;46.052;14.544;2022-10-31T01:11:38;98852.63;;;11.66;100.00
56182;BME280;51963;46.052;14.544;2022-10-31T01:14:06;98852.34;;;11.45;100.00
56182;BME280;51963;46.052;14.544;2022-10-31T01:16:32;98851.16;;;11.48;100.00
56182;BME280;51963;46.052;14.544;2022-10-31T01:18:57;98849.59;;;11.39;100.00
56182;BME280;51963;46.052;14.544;2022-10-31T01:21:26;98846.03;;;11.47;100.00
56182;BME280;51963;46.052;14.544;2022-10-31T01:23:53;98840.28;;;11.58;100.00
56182;BME280;51963;46.052;14.544;2022-10-31T01:26:21;98846.41;;;11.28;100.00
56182;BME280;51963;46.052;14.544;2022-10-31T01:28:50;98840.38;;;11.35;100.00
56182;BME280;51963;46.052;14.544;2022-10-31T01:31:18;98842.06;;;11.12;100.00
56182;BME280;51963;46.052;14.544;2022-10-31T01:33:44;98843.31;;;11.40;100.00
56182;BME280;51963;46.052;14.544;2022-10-31T01:36:30;98839.47;;;11.57;100.00
56182;BME280;51963;46.052;14.544;2022-10-31T01:39:00;98837.56;;;11.51;100.00
56182;BME280;51963;46.052;14.544;2022-10-31T01:41:29;98847.69;;;11.48;100.00
56182;BME280;51963;46.052;14.544;2022-10-31T01:48:59;98842.41;;;11.63;100.00
56182;BME280;51963;46.052;14.544;2022-10-31T01:51:26;98839.03;;;11.69;100.00
56182;BME280;51963;46.052;14.544;2022-10-31T01:53:55;98834.91;;;11.51;100.00
56182;BME280;51963;46.052;14.544;2022-10-31T01:56:23;98839.47;;;11.57;100.00
56182;BME280;51963;46.052;14.544;2022-10-31T01:58:50;98831.34;;;11.59;100.00
56182;BME280;51963;46.052;14.544;2022-10-31T02:01:17;98819.38;;;11.48;100.00
56182;BME280;51963;46.052;14.544;2022-10-31T02:03:44;98828.78;;;11.66;100.00
56182;BME280;51963;46.052;14.544;2022-10-31T02:07:15;98822.94;;;11.55;100.00
56182;BME280;51963;46.052;14.544;2022-10-31T02:09:22;98839.00;;;11.54;100.00
56182;BME280;51963;46.052;14.544;2022-10-31T02:11:51;98823.41;;;11.44;100.00
56182;BME280;51963;46.052;14.544;2022-10-31T02:14:18;98832.31;;;11.28;100.00
56182;BME280;51963;46.052;14.544;2022-10-31T02:16:44;98831.59;;;11.19;100.00
56182;BME280;51963;46.052;14.544;2022-10-31T02:19:12;98827.38;;;11.10;100.00
56182;BME280;51963;46.052;14.544;2022-10-31T02:21:49;98832.81;;;10.93;100.00
56182;BME280;51963;46.052;14.544;2022-10-31T02:24:40;98831.31;;;11.14;100.00
56182;BME280;51963;46.052;14.544;2022-10-31T02:30:04;98829.09;;;11.03;100.00
56182;BME280;51963;46.052;14.544;2022-10-31T02:35:25;98831.25;;;10.99;100.00
56182;BME280;51963;46.052;14.544;2022-10-31T02:38:25;98831.75;;;11.03;100.00
56182;BME280;51963;46.052;14.544;2022-10-31T02:41:10;98827.25;;;10.88;100.00
56182;BME280;51963;46.052;14.544;2022-10-31T02:43:54;98828.81;;;10.74;100.00
56182;BME280;51963;46.052;14.544;2022-10-31T02:51:52;98833.69;;;10.85;100.00
56182;BME280;51963;46.052;14.544;2022-10-31T02:54:21;98822.38;;;10.77;100.00
56182;BME280;51963;46.052;14.544;2022-10-31T02:56:56;98827.31;;;10.80;100.00
56182;BME280;51963;46.052;14.544;2022-10-31T02:59:31;98825.03;;;10.92;100.00
56182;BME280;51963;46.052;14.544;2022-10-31T03:10:52;98834.47;;;11.09;100.00
56182;BME280;51963;46.052;14.544;2022-10-31T03:13:35;98828.81;;;10.74;100.00
56182;BME280;51963;46.052;14.544;2022-10-31T03:16:11;98829.69;;;10.90;100.00
56182;BME280;51963;46.052;14.544;2022-10-31T03:18:42;98843.06;;;10.73;100.00
56182;BME280;51963;46.052;14.544;2022-10-31T03:21:14;98828.94;;;10.81;100.00
56182;BME280;51963;46.052;14.544;2022-10-31T03:23:44;98838.50;;;11.05;100.00
56182;BME280;51963;46.052;14.544;2022-10-31T03:26:19;98831.84;;;11.09;100.00
56182;BME280;51963;46.052;14.544;2022-10-31T03:28:52;98839.97;;;11.08;100.00
56182;BME280;51963;46.052;14.544;2022-10-31T03:31:22;98838.69;;;11.04;100.00
56182;BME280;51963;46.052;14.544;2022-10-31T03:33:50;98833.72;;;10.62;100.00
56182;BME280;51963;46.052;14.544;2022-10-31T03:36:17;98840.25;;;10.75;100.00
56182;BME280;51963;46.052;14.544;2022-10-31T03:38:45;98826.94;;;10.60;100.00
56182;BME280;51963;46.052;14.544;2022-10-31T03:41:20;98847.19;;;10.76;100.00
56182;BME280;51963;46.052;14.544;2022-10-31T03:44:13;98852.69;;;10.66;100.00
56182;BME280;51963;46.052;14.544;2022-10-31T03:46:42;98856.78;;;10.45;100.00
56182;BME280;51963;46.052;14.544;2022-10-31T03:49:09;98853.59;;;10.50;100.00
56182;BME280;51963;46.052;14.544;2022-10-31T03:56:57;98863.91;;;10.36;100.00
56182;BME280;51963;46.052;14.544;2022-10-31T03:59:32;98865.91;;;10.34;100.00
56182;BME280;51963;46.052;14.544;2022-10-31T04:02:07;98858.47;;;10.38;100.00
56182;BME280;51963;46.052;14.544;2022-10-31T04:04:36;98858.72;;;10.51;100.00
56182;BME280;51963;46.052;14.544;2022-10-31T04:07:05;98851.41;;;10.85;100.00
56182;BME280;51963;46.052;14.544;2022-10-31T04:09:36;98848.69;;;10.93;100.00
56182;BME280;51963;46.052;14.544;2022-10-31T04:12:04;98856.88;;;10.60;100.00
56182;BME280;51963;46.052;14.544;2022-10-31T04:14:48;98862.69;;;10.79;100.00
56182;BME280;51963;46.052;14.544;2022-10-31T04:17:17;98861.22;;;10.99;100.00
56182;BME280;51963;46.052;14.544;2022-10-31T04:19:44;98855.50;;;11.11;100.00
56182;BME280;51963;46.052;14.544;2022-10-31T04:22:10;98852.66;;;11.12;100.00
56182;BME280;51963;46.052;14.544;2022-10-31T04:24:38;98857.13;;;11.12;100.00
56182;BME280;51963;46.052;14.544;2022-10-31T04:27:05;98855.66;;;11.09;100.00
56182;BME280;51963;46.052;14.544;2022-10-31T04:29:30;98857.84;;;11.06;100.00
56182;BME280;51963;46.052;14.544;2022-10-31T04:31:57;98848.91;;;11.07;100.00
56182;BME280;51963;46.052;14.544;2022-10-31T04:34:22;98864.34;;;11.18;100.00
56182;BME280;51963;46.052;14.544;2022-10-31T04:36:50;98867.59;;;11.05;100.00
56182;BME280;51963;46.052;14.544;2022-10-31T04:39:16;98856.44;;;10.95;100.00
56182;BME280;51963;46.052;14.544;2022-10-31T04:41:53;98861.00;;;11.01;100.00
56182;BME280;51963;46.052;14.544;2022-10-31T04:44:18;98853.56;;;11.05;100.00
56182;BME280;51963;46.052;14.544;2022-10-31T04:46:48;98865.38;;;10.94;100.00
56182;BME280;51963;46.052;14.544;2022-10-31T04:49:14;98850.97;;;10.50;100.00
56182;BME280;51963;46.052;14.544;2022-10-31T04:51:40;98860.59;;;10.42;100.00
56182;BME280;51963;46.052;14.544;2022-10-31T04:54:07;98861.69;;;10.17;100.00
56182;BME280;51963;46.052;14.544;2022-10-31T04:56:38;98862.22;;;10.12;100.00
56182;BME280;51963;46.052;14.544;2022-10-31T04:59:10;98863.72;;;10.06;100.00
56182;BME280;51963;46.052;14.544;2022-10-31T05:01:47;98863.09;;;9.96;100.00
56182;BME280;51963;46.052;14.544;2022-10-31T05:04:12;98870.03;;;9.97;100.00
56182;BME280;51963;46.052;14.544;2022-10-31T05:06:38;98857.16;;;9.94;100.00
56182;BME280;51963;46.052;14.544;2022-10-31T05:09:04;98861.00;;;9.91;100.00
56182;BME280;51963;46.052;14.544;2022-10-31T05:11:29;98862.41;;;10.02;100.00
56182;BME280;51963;46.052;14.544;2022-10-31T05:14:05;98860.78;;;10.01;100.00
56182;BME280;51963;46.052;14.544;2022-10-31T05:17:02;98864.13;;;9.87;100.00
56182;BME280;51963;46.052;14.544;2022-10-31T05:19:51;98865.69;;;10.12;100.00
56182;BME280;51963;46.052;14.544;2022-10-31T05:22:49;98866.06;;;10.01;100.00
56182;BME280;51963;46.052;14.544;2022-10-31T05:25:17;98865.31;;;10.16;100.00
56182;BME280;51963;46.052;14.544;2022-10-31T05:27:45;98862.66;;;10.24;100.00
56182;BME280;51963;46.052;14.544;2022-10-31T05:30:13;98858.28;;;10.39;100.00
56182;BME280;51963;46.052;14.544;2022-10-31T05:32:41;98862.03;;;10.53;100.00
56182;BME280;51963;46.052;14.544;2022-10-31T05:35:30;98853.88;;;10.32;100.00
56182;BME280;51963;46.052;14.544;2022-10-31T05:38:15;98862.44;;;10.42;100.00
56182;BME280;51963;46.052;14.544;2022-10-31T05:40:42;98863.84;;;10.53;100.00
56182;BME280;51963;46.052;14.544;2022-10-31T05:43:08;98857.38;;;10.55;100.00
56182;BME280;51963;46.052;14.544;2022-10-31T05:45:34;98854.25;;;10.52;100.00
56182;BME280;51963;46.052;14.544;2022-10-31T05:48:05;98868.94;;;10.23;100.00
56182;BME280;51963;46.052;14.544;2022-10-31T05:50:49;98863.88;;;10.13;100.00
56182;BME280;51963;46.052;14.544;2022-10-31T05:53:16;98866.22;;;10.39;100.00
56182;BME280;51963;46.052;14.544;2022-10-31T05:55:42;98863.88;;;10.45;100.00
56182;BME280;51963;46.052;14.544;2022-10-31T05:58:13;98872.53;;;10.30;100.00
56182;BME280;51963;46.052;14.544;2022-10-31T06:00:46;98871.75;;;10.21;100.00
56182;BME280;51963;46.052;14.544;2022-10-31T06:03:12;98873.59;;;10.12;100.00
56182;BME280;51963;46.052;14.544;2022-10-31T06:05:56;98872.91;;;9.79;100.00
56182;BME280;51963;46.052;14.544;2022-10-31T06:08:35;98872.59;;;9.74;100.00
56182;BME280;51963;46.052;14.544;2022-10-31T06:11:05;98874.22;;;9.83;100.00
56182;BME280;51963;46.052;14.544;2022-10-31T06:13:49;98876.91;;;9.75;100.00
56182;BME280;51963;46.052;14.544;2022-10-31T06:16:20;98888.22;;;9.92;100.00
56182;BME280;51963;46.052;14.544;2022-10-31T06:18:46;98881.66;;;9.79;100.00
56182;BME280;51963;46.052;14.544;2022-10-31T06:21:13;98880.66;;;9.80;100.00
56182;BME280;51963;46.052;14.544;2022-10-31T06:23:38;98885.94;;;9.80;100.00
56182;BME280;51963;46.052;14.544;2022-10-31T06:26:23;98884.00;;;9.66;100.00
56182;BME280;51963;46.052;14.544;2022-10-31T06:28:49;98884.19;;;9.56;100.00
56182;BME280;51963;46.052;14.544;2022-10-31T06:31:35;98892.78;;;9.50;100.00
56182;BME280;51963;46.052;14.544;2022-10-31T06:34:01;98889.97;;;9.51;100.00
56182;BME280;51963;46.052;14.544;2022-10-31T06:36:26;98889.19;;;9.43;100.00
56182;BME280;51963;46.052;14.544;2022-10-31T06:38:53;98887.22;;;9.36;100.00
56182;BME280;51963;46.052;14.544;2022-10-31T06:41:21;98892.63;;;9.35;100.00
56182;BME280;51963;46.052;14.544;2022-10-31T06:43:48;98894.63;;;9.33;100.00
56182;BME280;51963;46.052;14.544;2022-10-31T06:46:36;98901.53;;;9.34;100.00
56182;BME280;51963;46.052;14.544;2022-10-31T06:49:21;98897.44;;;9.31;100.00
56182;BME280;51963;46.052;14.544;2022-10-31T06:51:53;98903.53;;;9.32;100.00
56182;BME280;51963;46.052;14.544;2022-10-31T06:54:20;98899.56;;;9.36;100.00
56182;BME280;51963;46.052;14.544;2022-10-31T06:56:47;98901.19;;;9.53;100.00
56182;BME280;51963;46.052;14.544;2022-10-31T06:59:14;98885.19;;;9.63;100.00
56182;BME280;51963;46.052;14.544;2022-10-31T07:02:10;98908.66;;;9.98;100.00
56182;BME280;51963;46.052;14.544;2022-10-31T07:04:36;98903.66;;;10.11;100.00
56182;BME280;51963;46.052;14.544;2022-10-31T07:07:03;98907.56;;;10.24;100.00
56182;BME280;51963;46.052;14.544;2022-10-31T07:09:29;98917.75;;;10.35;100.00
56182;BME280;51963;46.052;14.544;2022-10-31T07:11:58;98912.47;;;10.44;100.00
56182;BME280;51963;46.052;14.544;2022-10-31T07:14:23;98924.97;;;10.50;100.00
56182;BME280;51963;46.052;14.544;2022-10-31T07:16:50;98913.03;;;10.62;100.00
56182;BME280;51963;46.052;14.544;2022-10-31T07:19:17;98922.97;;;10.60;100.00
56182;BME280;51963;46.052;14.544;2022-10-31T07:21:43;98916.34;;;10.56;100.00
56182;BME280;51963;46.052;14.544;2022-10-31T07:24:12;98919.59;;;10.75;100.00
56182;BME280;51963;46.052;14.544;2022-10-31T07:26:41;98918.41;;;10.77;100.00
56182;BME280;51963;46.052;14.544;2022-10-31T07:29:08;98918.28;;;10.70;100.00
56182;BME280;51963;46.052;14.544;2022-10-31T07:31:34;98922.00;;;10.53;100.00
56182;BME280;51963;46.052;14.544;2022-10-31T07:34:07;98925.34;;;10.47;100.00
56182;BME280;51963;46.052;14.544;2022-10-31T07:36:51;98914.88;;;10.85;100.00
56182;BME280;51963;46.052;14.544;2022-10-31T07:39:18;98923.47;;;10.87;100.00
56182;BME280;51963;46.052;14.544;2022-10-31T07:41:43;98922.66;;;11.10;100.00
56182;BME280;51963;46.052;14.544;2022-10-31T07:44:09;98923.81;;;11.30;100.00
56182;BME280;51963;46.052;14.544;2022-10-31T07:47:04;98918.34;;;11.47;100.00
56182;BME280;51963;46.052;14.544;2022-10-31T07:50:01;98921.09;;;11.54;100.00
56182;BME280;51963;46.052;14.544;2022-10-31T07:52:45;98924.28;;;11.49;100.00
56182;BME280;51963;46.052;14.544;2022-10-31T07:55:34;98917.16;;;11.35;100.00
56182;BME280;51963;46.052;14.544;2022-10-31T07:58:03;98918.25;;;11.40;100.00
56182;BME280;51963;46.052;14.544;2022-10-31T08:00:30;98897.69;;;11.27;100.00
56182;BME280;51963;46.052;14.544;2022-10-31T08:05:42;98912.00;;;11.86;100.00
56182;BME280;51963;46.052;14.544;2022-10-31T08:08:30;98912.28;;;12.07;100.00
56182;BME280;51963;46.052;14.544;2022-10-31T08:10:57;98911.38;;;12.14;100.00
56182;BME280;51963;46.052;14.544;2022-10-31T08:13:23;98914.19;;;12.28;100.00
56182;BME280;51963;46.052;14.544;2022-10-31T08:15:50;98911.91;;;12.25;100.00
56182;BME280;51963;46.052;14.544;2022-10-31T08:18:21;98909.72;;;11.83;100.00
56182;BME280;51963;46.052;14.544;2022-10-31T08:20:49;98922.16;;;11.98;100.00
56182;BME280;51963;46.052;14.544;2022-10-31T08:23:15;98908.25;;;11.96;100.00
56182;BME280;51963;46.052;14.544;2022-10-31T08:25:42;98914.19;;;12.65;100.00
56182;BME280;51963;46.052;14.544;2022-10-31T08:28:10;98911.09;;;13.26;100.00
56182;BME280;51963;46.052;14.544;2022-10-31T08:30:38;98905.72;;;13.70;100.00
56182;BME280;51963;46.052;14.544;2022-10-31T08:33:22;98911.25;;;14.10;100.00
56182;BME280;51963;46.052;14.544;2022-10-31T08:36:06;98907.81;;;13.74;100.00
56182;BME280;51963;46.052;14.544;2022-10-31T08:38:50;98911.59;;;14.42;100.00
56182;BME280;51963;46.052;14.544;2022-10-31T08:41:16;98906.31;;;14.49;100.00
56182;BME280;51963;46.052;14.544;2022-10-31T08:43:42;98908.66;;;14.86;100.00
56182;BME280;51963;46.052;14.544;2022-10-31T08:46:08;98893.13;;;14.96;100.00
56182;BME280;51963;46.052;14.544;2022-10-31T08:48:34;98897.22;;;15.05;100.00
56182;BME280;51963;46.052;14.544;2022-10-31T08:51:01;98897.41;;;14.84;100.00
56182;BME280;51963;46.052;14.544;2022-10-31T08:53:28;98902.69;;;14.70;100.00
56182;BME280;51963;46.052;14.544;2022-10-31T08:56:17;98895.97;;;14.74;100.00
56182;BME280;51963;46.052;14.544;2022-10-31T08:58:43;98904.31;;;14.64;100.00
56182;BME280;51963;46.052;14.544;2022-10-31T09:01:09;98892.69;;;14.72;100.00
56182;BME280;51963;46.052;14.544;2022-10-31T09:03:35;98898.28;;;15.11;100.00
56182;BME280;51963;46.052;14.544;2022-10-31T09:06:02;98901.53;;;15.40;100.00
56182;BME280;51963;46.052;14.544;2022-10-31T09:08:30;98887.19;;;15.41;100.00
56182;BME280;51963;46.052;14.544;2022-10-31T09:10:57;98894.94;;;15.76;100.00
56182;BME280;51963;46.052;14.544;2022-10-31T09:13:42;98887.91;;;16.09;100.00
56182;BME280;51963;46.052;14.544;2022-10-31T09:16:31;98891.53;;;16.67;100.00
56182;BME280;51963;46.052;14.544;2022-10-31T09:18:57;98885.72;;;17.34;96.06
56182;BME280;51963;46.052;14.544;2022-10-31T09:21:23;98884.44;;;17.62;93.75
56182;BME280;51963;46.052;14.544;2022-10-31T09:23:49;98878.22;;;18.24;90.33
56182;BME280;51963;46.052;14.544;2022-10-31T09:26:15;98890.53;;;18.44;89.01
56182;BME280;51963;46.052;14.544;2022-10-31T09:29:00;98885.81;;;18.09;88.60
56182;BME280;51963;46.052;14.544;2022-10-31T09:31:28;98879.25;;;18.23;88.10
56182;BME280;51963;46.052;14.544;2022-10-31T09:33:54;98887.06;;;18.55;87.82
56182;BME280;51963;46.052;14.544;2022-10-31T09:36:36;98868.28;;;18.74;85.50
56182;BME280;51963;46.052;14.544;2022-10-31T09:39:03;98883.53;;;19.52;84.64
56182;BME280;51963;46.052;14.544;2022-10-31T09:49:58;98869.22;;;20.98;76.70
56182;BME280;51963;46.052;14.544;2022-10-31T09:52:29;98871.66;;;21.50;76.21
56182;BME280;51963;46.052;14.544;2022-10-31T09:55:17;98862.91;;;21.77;71.67
56182;BME280;51963;46.052;14.544;2022-10-31T09:57:46;98859.31;;;21.72;72.28
56182;BME280;51963;46.052;14.544;2022-10-31T10:00:18;98859.75;;;21.63;71.31
56182;BME280;51963;46.052;14.544;2022-10-31T10:02:56;98864.50;;;21.05;73.88
56182;BME280;51963;46.052;14.544;2022-10-31T10:08:43;98859.38;;;21.20;74.47
56182;BME280;51963;46.052;14.544;2022-10-31T10:30:19;98842.34;;;22.43;66.95
56182;BME280;51963;46.052;14.544;2022-10-31T10:33:02;98832.22;;;23.58;63.96
56182;BME280;51963;46.052;14.544;2022-10-31T10:35:38;98829.75;;;24.10;60.85
56182;BME280;51963;46.052;14.544;2022-10-31T10:38:20;98830.44;;;23.26;63.28
56182;BME280;51963;46.052;14.544;2022-10-31T10:40:48;98823.75;;;22.69;64.05
56182;BME280;51963;46.052;14.544;2022-10-31T10:45:58;98826.03;;;23.20;64.79
56182;BME280;51963;46.052;14.544;2022-10-31T10:51:22;98816.94;;;23.26;61.81
56182;BME280;51963;46.052;14.544;2022-10-31T10:54:12;98793.69;;;22.50;62.79
56182;BME280;51963;46.052;14.544;2022-10-31T10:59:27;98803.56;;;22.44;64.73
56182;BME280;51963;46.052;14.544;2022-10-31T11:01:53;98793.41;;;23.70;61.02
56182;BME280;51963;46.052;14.544;2022-10-31T11:04:29;98792.81;;;23.57;61.34
56182;BME280;51963;46.052;14.544;2022-10-31T11:07:07;98793.88;;;24.15;60.67
56182;BME280;51963;46.052;14.544;2022-10-31T11:09:34;98779.56;;;24.61;59.17
56182;BME280;51963;46.052;14.544;2022-10-31T11:12:08;98787.72;;;24.87;58.26
56182;BME280;51963;46.052;14.544;2022-10-31T11:14:55;98782.16;;;23.99;59.33
56182;BME280;51963;46.052;14.544;2022-10-31T11:17:36;98785.53;;;24.79;58.84
56182;BME280;51963;46.052;14.544;2022-10-31T11:22:38;98767.66;;;25.14;56.04
56182;BME280;51963;46.052;14.544;2022-10-31T11:27:47;98776.97;;;27.47;49.30
56182;BME280;51963;46.052;14.544;2022-10-31T11:30:23;98774.75;;;25.81;51.63
56182;BME280;51963;46.052;14.544;2022-10-31T11:32:50;98766.84;;;27.28;48.04
56182;BME280;51963;46.052;14.544;2022-10-31T11:35:21;98763.53;;;27.07;48.20
56182;BME280;51963;46.052;14.544;2022-10-31T11:37:49;98766.13;;;27.90;45.52
56182;BME280;51963;46.052;14.544;2022-10-31T11:40:22;98761.81;;;28.61;43.64
56182;BME280;51963;46.052;14.544;2022-10-31T11:42:49;98763.22;;;27.62;45.18
56182;BME280;51963;46.052;14.544;2022-10-31T11:45:36;98754.88;;;27.78;45.33
56182;BME280;51963;46.052;14.544;2022-10-31T11:48:15;98751.25;;;28.73;42.84
56182;BME280;51963;46.052;14.544;2022-10-31T11:50:48;98754.47;;;29.08;41.41
56182;BME280;51963;46.052;14.544;2022-10-31T11:53:20;98745.78;;;29.34;41.96
56182;BME280;51963;46.052;14.544;2022-10-31T11:55:47;98741.66;;;28.62;43.08
56182;BME280;51963;46.052;14.544;2022-10-31T11:58:21;98735.53;;;29.45;40.08
56182;BME280;51963;46.052;14.544;2022-10-31T12:00:50;98737.44;;;29.45;40.01
56182;BME280;51963;46.052;14.544;2022-10-31T12:08:39;98717.78;;;30.21;37.86
56182;BME280;51963;46.052;14.544;2022-10-31T12:11:30;98723.22;;;30.44;37.21
56182;BME280;51963;46.052;14.544;2022-10-31T12:16:32;98710.06;;;30.46;37.53
56182;BME280;51963;46.052;14.544;2022-10-31T12:22:40;98710.47;;;28.73;39.44
56182;BME280;51963;46.052;14.544;2022-10-31T12:25:17;98706.75;;;30.04;38.72
56182;BME280;51963;46.052;14.544;2022-10-31T12:28:00;98707.75;;;30.85;36.89
56182;BME280;51963;46.052;14.544;2022-10-31T12:36:11;98695.31;;;30.47;37.88
56182;BME280;51963;46.052;14.544;2022-10-31T12:41:57;98688.28;;;30.00;37.73
56182;BME280;51963;46.052;14.544;2022-10-31T12:45:13;98691.94;;;31.13;35.97
56182;BME280;51963;46.052;14.544;2022-10-31T12:58:45;98680.44;;;31.34;35.09
56182;BME280;51963;46.052;14.544;2022-10-31T13:01:19;98671.50;;;30.62;37.51
56182;BME280;51963;46.052;14.544;2022-10-31T13:04:05;98670.66;;;29.84;38.16
56182;BME280;51963;46.052;14.544;2022-10-31T13:06:39;98669.59;;;29.20;38.61
56182;BME280;51963;46.052;14.544;2022-10-31T13:09:10;98664.09;;;29.85;39.03
56182;BME280;51963;46.052;14.544;2022-10-31T13:11:43;98666.56;;;30.41;38.03
56182;BME280;51963;46.052;14.544;2022-10-31T13:17:38;98651.25;;;29.99;38.74
56182;BME280;51963;46.052;14.544;2022-10-31T13:20:17;98651.59;;;30.07;38.32
56182;BME280;51963;46.052;14.544;2022-10-31T13:22:48;98659.53;;;31.21;36.52
56182;BME280;51963;46.052;14.544;2022-10-31T13:25:17;98658.47;;;31.48;35.50
56182;BME280;51963;46.052;14.544;2022-10-31T13:27:56;98649.13;;;31.40;35.28
56182;BME280;51963;46.052;14.544;2022-10-31T13:30:27;98651.03;;;31.31;36.27
56182;BME280;51963;46.052;14.544;2022-10-31T13:38:16;98651.84;;;31.40;36.18
56182;BME280;51963;46.052;14.544;2022-10-31T13:40:52;98643.72;;;31.00;36.06
56182;BME280;51963;46.052;14.544;2022-10-31T13:46:00;98651.50;;;30.66;36.83
56182;BME280;51963;46.052;14.544;2022-10-31T13:48:40;98641.81;;;30.06;37.43
56182;BME280;51963;46.052;14.544;2022-10-31T13:51:10;98631.13;;;30.72;38.73
56182;BME280;51963;46.052;14.544;2022-10-31T13:56:15;98631.84;;;29.41;39.79
56182;BME280;51963;46.052;14.544;2022-10-31T13:58:58;98643.78;;;28.90;39.98
56182;BME280;51963;46.052;14.544;2022-10-31T14:01:29;98637.06;;;28.40;42.13
56182;BME280;51963;46.052;14.544;2022-10-31T14:04:05;98632.03;;;30.05;38.98
56182;BME280;51963;46.052;14.544;2022-10-31T14:06:41;98638.31;;;30.05;38.64
56182;BME280;51963;46.052;14.544;2022-10-31T14:09:27;98635.53;;;30.91;37.93
56182;BME280;51963;46.052;14.544;2022-10-31T14:11:54;98639.63;;;30.39;38.66
56182;BME280;51963;46.052;14.544;2022-10-31T14:14:25;98640.81;;;30.56;39.61
56182;BME280;51963;46.052;14.544;2022-10-31T14:16:55;98638.00;;;30.61;38.45
56182;BME280;51963;46.052;14.544;2022-10-31T14:19:22;98644.13;;;30.44;39.29
56182;BME280;51963;46.052;14.544;2022-10-31T14:21:49;98623.31;;;29.57;40.32
56182;BME280;51963;46.052;14.544;2022-10-31T14:26:53;98637.06;;;30.43;39.29
56182;BME280;51963;46.052;14.544;2022-10-31T14:29:28;98643.41;;;30.29;39.28
56182;BME280;51963;46.052;14.544;2022-10-31T14:31:59;98629.91;;;30.24;38.82
56182;BME280;51963;46.052;14.544;2022-10-31T14:48:31;98638.50;;;28.51;42.15
56182;BME280;51963;46.052;14.544;2022-10-31T14:51:01;98640.81;;;28.11;43.23
56182;BME280;51963;46.052;14.544;2022-10-31T14:53:33;98637.41;;;27.67;45.23
56182;BME280;51963;46.052;14.544;2022-10-31T14:56:00;98639.44;;;27.18;47.28
56182;BME280;51963;46.052;14.544;2022-10-31T14:58:44;98634.59;;;26.90;48.92
56182;BME280;51963;46.052;14.544;2022-10-31T15:01:32;98638.59;;;25.70;51.27
56182;BME280;51963;46.052;14.544;2022-10-31T15:04:20;98632.31;;;25.29;54.76
56182;BME280;51963;46.052;14.544;2022-10-31T15:06:50;98628.69;;;24.94;55.96
56182;BME280;51963;46.052;14.544;2022-10-31T15:09:25;98629.28;;;24.65;57.88
56182;BME280;51963;46.052;14.544;2022-10-31T15:11:52;98628.25;;;23.94;60.76
56182;BME280;51963;46.052;14.544;2022-10-31T15:14:23;98627.72;;;23.86;61.30
56182;BME280;51963;46.052;14.544;2022-10-31T15:16:49;98635.09;;;23.17;63.30
56182;BME280;51963;46.052;14.544;2022-10-31T15:19:25;98631.06;;;22.61;66.73
56182;BME280;51963;46.052;14.544;2022-10-31T15:21:53;98632.38;;;21.38;74.34
56182;BME280;51963;46.052;14.544;2022-10-31T15:24:19;98628.72;;;21.22;77.48
56182;BME280;51963;46.052;14.544;2022-10-31T15:26:51;98643.78;;;21.23;76.48
56182;BME280;51963;46.052;14.544;2022-10-31T15:29:20;98638.44;;;20.84;77.38